createdAt,value
2022-11-13T00:01:16.184Z,8.20
2022-11-13T00:04:01.174Z,8.25
2022-11-13T00:06:46.116Z,8.18
2022-11-13T00:09:30.919Z,8.37
2022-11-13T00:12:15.895Z,8.38
2022-11-13T00:15:00.784Z,8.49
2022-11-13T00:17:45.696Z,8.49
2022-11-13T00:20:30.700Z,8.52
2022-11-13T00:23:15.602Z,8.41
2022-11-13T00:26:07.681Z,8.51
2022-11-13T00:28:57.044Z,8.47
2022-11-13T00:31:42.181Z,8.41
2022-11-13T00:34:46.527Z,8.38
2022-11-13T00:37:32.217Z,8.36
2022-11-13T00:40:17.125Z,8.27
2022-11-13T00:43:02.211Z,8.50
2022-11-13T00:45:46.993Z,8.54
2022-11-13T00:48:31.849Z,8.46
2022-11-13T00:51:16.780Z,8.55
2022-11-13T00:54:01.795Z,8.58
2022-11-13T00:56:46.626Z,8.57
2022-11-13T00:59:31.507Z,8.62
2022-11-13T01:02:16.548Z,8.51
2022-11-13T01:05:01.747Z,8.53
2022-11-13T01:07:46.576Z,8.56
2022-11-13T01:10:32.022Z,8.29
2022-11-13T01:13:17.203Z,8.32
2022-11-13T01:16:05.125Z,8.34
2022-11-13T01:18:50.423Z,8.29
2022-11-13T01:21:35.726Z,8.29
2022-11-13T01:24:20.541Z,8.18
2022-11-13T01:27:05.652Z,7.93
2022-11-13T01:29:50.568Z,7.85
2022-11-13T01:32:35.608Z,7.86
2022-11-13T01:35:20.523Z,7.82
2022-11-13T01:38:05.544Z,7.81
2022-11-13T01:40:50.854Z,7.63
2022-11-13T01:43:36.841Z,7.73
2022-11-13T01:46:29.718Z,7.57
2022-11-13T01:49:17.605Z,7.57
2022-11-13T01:52:04.486Z,7.37
2022-11-13T01:55:09.752Z,7.33
2022-11-13T01:57:54.872Z,7.38
2022-11-13T02:00:40.084Z,7.37
2022-11-13T02:03:25.029Z,7.21
2022-11-13T02:06:10.443Z,6.91
2022-11-13T02:08:56.024Z,6.88
2022-11-13T02:11:41.292Z,6.73
2022-11-13T02:14:28.138Z,6.68
2022-11-13T02:17:18.671Z,6.41
2022-11-13T02:20:05.896Z,6.48
2022-11-13T02:23:07.667Z,6.40
2022-11-13T02:25:53.408Z,6.34
2022-11-13T02:28:38.328Z,6.12
2022-11-13T02:31:23.538Z,5.93
2022-11-13T02:34:08.350Z,5.76
2022-11-13T02:36:53.250Z,5.94
2022-11-13T02:39:38.172Z,5.88
2022-11-13T02:42:23.080Z,5.87
2022-11-13T02:45:08.321Z,5.91
2022-11-13T02:47:53.542Z,5.87
2022-11-13T02:50:39.002Z,5.59
2022-11-13T02:53:23.857Z,5.56
2022-11-13T02:56:09.079Z,5.45
2022-11-13T02:58:54.186Z,5.20
2022-11-13T03:01:39.245Z,5.21
2022-11-13T03:04:24.173Z,5.22
2022-11-13T03:07:09.093Z,5.23
2022-11-13T03:09:53.900Z,5.16
2022-11-13T03:12:38.795Z,5.24
2022-11-13T03:15:24.047Z,5.20
2022-11-13T03:18:09.030Z,5.00
2022-11-13T03:20:54.378Z,4.89
2022-11-13T03:23:40.678Z,4.96
2022-11-13T03:26:28.244Z,5.00
2022-11-13T03:29:13.606Z,5.10
2022-11-13T03:31:58.397Z,5.05
2022-11-13T03:34:43.345Z,4.96
2022-11-13T03:37:28.285Z,5.00
2022-11-13T03:40:13.534Z,4.77
2022-11-13T03:42:58.807Z,4.88
2022-11-13T03:45:47.307Z,4.62
2022-11-13T03:48:32.345Z,4.58
2022-11-13T03:51:17.638Z,4.41
2022-11-13T03:54:02.469Z,4.54
2022-11-13T03:56:47.496Z,4.57
2022-11-13T03:59:32.357Z,4.52
2022-11-13T04:02:17.166Z,4.28
2022-11-13T04:05:02.199Z,4.46
2022-11-13T04:07:47.138Z,4.42
2022-11-13T04:10:32.142Z,4.37
2022-11-13T04:13:17.099Z,4.45
2022-11-13T04:16:01.971Z,4.54
2022-11-13T04:18:46.943Z,4.47
2022-11-13T04:21:31.986Z,4.45
2022-11-13T04:24:16.800Z,4.47
2022-11-13T04:27:01.460Z,4.21
2022-11-13T04:29:46.293Z,4.24
2022-11-13T04:32:31.764Z,4.14
2022-11-13T04:35:16.692Z,4.19
2022-11-13T04:38:01.613Z,4.00
2022-11-13T04:40:48.960Z,4.07
2022-11-13T04:43:33.685Z,3.98
2022-11-13T04:46:18.689Z,4.13
2022-11-13T04:49:03.600Z,4.08
2022-11-13T04:51:48.837Z,4.08
2022-11-13T04:54:33.862Z,4.10
2022-11-13T04:57:18.799Z,3.88
2022-11-13T05:00:04.588Z,3.89
2022-11-13T05:02:49.783Z,3.78
2022-11-13T05:05:34.936Z,3.80
2022-11-13T05:08:20.005Z,3.67
2022-11-13T05:11:05.199Z,3.65
2022-11-13T05:13:52.263Z,3.71
2022-11-13T05:16:37.244Z,3.75
2022-11-13T05:19:22.192Z,4.02
2022-11-13T05:22:07.842Z,4.31
2022-11-13T05:24:52.825Z,4.32
2022-11-13T05:27:37.783Z,4.38
2022-11-13T05:30:22.569Z,4.54
2022-11-13T05:33:07.589Z,4.77
2022-11-13T05:35:52.653Z,4.93
2022-11-13T05:38:37.538Z,4.93
2022-11-13T05:41:23.636Z,4.99
2022-11-13T05:44:08.803Z,4.92
2022-11-13T05:46:53.765Z,4.89
2022-11-13T05:49:38.601Z,5.05
2022-11-13T05:52:23.484Z,5.15
2022-11-13T05:55:08.357Z,5.23
2022-11-13T05:57:53.554Z,5.36
2022-11-13T06:00:38.660Z,5.43
2022-11-13T06:03:23.708Z,5.52
2022-11-13T06:06:09.791Z,5.61
2022-11-13T06:08:55.788Z,5.59
2022-11-13T06:11:40.760Z,5.75
2022-11-13T06:14:25.969Z,5.88
2022-11-13T06:17:10.930Z,6.03
2022-11-13T06:19:55.765Z,5.94
2022-11-13T06:22:40.701Z,6.25
2022-11-13T06:25:25.772Z,6.20
2022-11-13T06:28:10.585Z,6.24
2022-11-13T06:30:55.467Z,6.27
2022-11-13T06:33:40.856Z,6.22
2022-11-13T06:36:27.459Z,6.35
2022-11-13T06:39:12.370Z,6.43
2022-11-13T06:41:57.686Z,6.35
2022-11-13T06:44:42.696Z,6.31
2022-11-13T06:47:28.231Z,6.33
2022-11-13T06:50:12.983Z,6.55
2022-11-13T06:52:57.754Z,6.62
2022-11-13T06:55:46.296Z,6.69
2022-11-13T06:58:32.082Z,6.74
2022-11-13T07:01:18.916Z,6.76
2022-11-13T07:04:04.583Z,7.19
2022-11-13T07:06:49.452Z,6.98
2022-11-13T07:09:34.470Z,6.94
2022-11-13T07:12:19.446Z,6.91
2022-11-13T07:15:04.632Z,6.97
2022-11-13T07:17:49.535Z,7.02
2022-11-13T07:20:35.228Z,6.99
2022-11-13T07:23:20.309Z,7.06
2022-11-13T07:26:05.446Z,7.12
2022-11-13T07:28:50.659Z,7.09
2022-11-13T07:31:35.741Z,7.15
2022-11-13T07:34:20.527Z,7.22
2022-11-13T07:37:08.232Z,7.49
2022-11-13T07:39:53.141Z,7.58
2022-11-13T07:42:38.636Z,7.63
2022-11-13T07:45:23.895Z,7.72
2022-11-13T07:48:09.637Z,7.91
2022-11-13T07:50:55.311Z,8.19
2022-11-13T07:53:40.203Z,8.31
2022-11-13T07:56:25.463Z,8.46
2022-11-13T07:59:10.795Z,8.57
2022-11-13T08:01:55.601Z,8.89
2022-11-13T08:04:40.567Z,9.37
2022-11-13T08:07:25.473Z,9.53
2022-11-13T08:10:10.560Z,9.80
2022-11-13T08:13:00.280Z,9.55
2022-11-13T08:15:45.149Z,9.74
2022-11-13T08:18:31.228Z,10.18
2022-11-13T08:21:16.321Z,10.49
2022-11-13T08:24:01.617Z,10.75
2022-11-13T08:26:46.515Z,11.26
2022-11-13T08:29:31.549Z,11.13
2022-11-13T08:32:17.483Z,11.01
2022-11-13T08:35:02.341Z,11.15
2022-11-13T08:37:47.351Z,10.99
2022-11-13T08:40:32.495Z,12.03
2022-11-13T08:43:17.660Z,11.64
2022-11-13T08:46:02.978Z,12.33
2022-11-13T08:48:47.882Z,12.36
2022-11-13T08:51:32.961Z,11.60
2022-11-13T08:54:18.024Z,11.45
2022-11-13T08:57:05.934Z,11.27
2022-11-13T08:59:51.324Z,11.93
2022-11-13T09:02:36.124Z,12.96
2022-11-13T09:05:21.102Z,13.84
2022-11-13T09:08:06.490Z,14.13
2022-11-13T09:10:51.630Z,13.98
2022-11-13T09:13:41.160Z,13.72
2022-11-13T09:16:28.920Z,13.84
2022-11-13T09:19:13.672Z,12.93
2022-11-13T09:21:58.631Z,13.20
2022-11-13T09:24:43.463Z,13.82
2022-11-13T09:27:28.506Z,14.01
2022-11-13T09:30:13.387Z,13.54
2022-11-13T09:32:59.594Z,13.93
2022-11-13T09:35:44.809Z,14.58
2022-11-13T09:38:32.000Z,14.25
2022-11-13T09:41:21.807Z,14.31
2022-11-13T09:44:13.473Z,14.90
2022-11-13T09:47:12.912Z,14.70
2022-11-13T09:50:01.119Z,14.64
2022-11-13T09:52:46.575Z,15.40
2022-11-13T09:55:38.473Z,15.31
2022-11-13T09:58:33.620Z,16.33
2022-11-13T10:01:29.258Z,16.10
2022-11-13T10:04:17.530Z,15.51
2022-11-13T10:07:15.713Z,15.36
2022-11-13T10:10:19.599Z,15.38
2022-11-13T10:13:06.149Z,15.82
2022-11-13T10:15:52.851Z,16.28
2022-11-13T10:18:38.539Z,15.42
2022-11-13T10:21:26.569Z,15.76
2022-11-13T10:24:31.956Z,16.95
2022-11-13T10:27:17.069Z,16.75
2022-11-13T10:30:02.292Z,16.51
2022-11-13T10:32:47.825Z,16.16
2022-11-13T10:35:39.642Z,15.34
2022-11-13T10:38:44.760Z,15.87
2022-11-13T10:41:30.052Z,15.91
2022-11-13T10:44:20.970Z,15.85
2022-11-13T10:47:19.835Z,15.24
2022-11-13T10:50:24.096Z,15.69
2022-11-13T10:53:16.422Z,15.38
2022-11-13T10:56:01.635Z,15.08
2022-11-13T10:58:59.040Z,14.83
2022-11-13T11:01:45.721Z,15.11
2022-11-13T11:04:30.710Z,14.86
2022-11-13T11:07:21.520Z,14.92
2022-11-13T11:10:19.052Z,15.11
2022-11-13T11:13:21.320Z,15.10
2022-11-13T11:16:08.697Z,15.40
2022-11-13T11:18:55.995Z,15.27
2022-11-13T11:21:42.732Z,15.74
2022-11-13T11:24:35.216Z,15.73
2022-11-13T11:27:40.800Z,16.04
2022-11-13T11:30:26.866Z,15.75
2022-11-13T11:33:30.673Z,15.89
2022-11-13T11:36:25.716Z,15.56
2022-11-13T11:39:25.463Z,15.57
2022-11-13T11:42:10.754Z,15.98
2022-11-13T11:45:14.597Z,15.79
2022-11-13T11:48:00.723Z,15.42
2022-11-13T11:50:55.209Z,15.54
2022-11-13T11:53:52.205Z,16.04
2022-11-13T11:56:57.327Z,16.10
2022-11-13T11:59:45.536Z,16.37
2022-11-13T12:02:45.949Z,15.54
2022-11-13T12:05:45.044Z,15.08
2022-11-13T12:08:33.443Z,15.08
2022-11-13T12:11:29.533Z,15.70
2022-11-13T12:14:26.871Z,14.66
2022-11-13T12:17:16.687Z,15.36
2022-11-13T12:20:09.909Z,15.20
2022-11-13T12:23:13.573Z,15.58
2022-11-13T12:26:10.531Z,14.85
2022-11-13T12:29:02.704Z,15.42
2022-11-13T12:31:57.026Z,15.14
2022-11-13T12:34:45.038Z,14.99
2022-11-13T12:37:49.180Z,15.27
2022-11-13T12:40:42.921Z,15.49
2022-11-13T12:43:37.604Z,15.89
2022-11-13T12:46:32.502Z,16.09
2022-11-13T12:49:23.420Z,16.10
2022-11-13T12:52:25.543Z,15.76
2022-11-13T12:55:25.540Z,15.74
2022-11-13T12:58:22.090Z,15.78
2022-11-13T13:01:15.384Z,15.35
2022-11-13T13:04:30.207Z,15.31
2022-11-13T13:07:15.492Z,15.23
2022-11-13T13:10:03.685Z,15.11
2022-11-13T13:12:51.664Z,14.92
2022-11-13T13:15:38.532Z,15.30
2022-11-13T13:18:23.385Z,15.08
2022-11-13T13:21:12.990Z,14.66
2022-11-13T13:24:06.414Z,14.66
2022-11-13T13:26:51.559Z,14.79
2022-11-13T13:29:40.460Z,14.48
2022-11-13T13:32:35.029Z,14.18
2022-11-13T13:35:23.870Z,14.23
2022-11-13T13:38:19.921Z,14.56
2022-11-13T13:41:16.945Z,14.52
2022-11-13T13:44:17.896Z,14.32
2022-11-13T13:47:06.234Z,14.37
2022-11-13T13:49:52.020Z,14.26
2022-11-13T13:52:37.285Z,13.67
2022-11-13T13:55:31.617Z,13.89
2022-11-13T13:58:22.818Z,14.05
2022-11-13T14:01:19.039Z,14.03
2022-11-13T14:04:34.441Z,14.01
2022-11-13T14:07:19.860Z,13.70
2022-11-13T14:10:06.962Z,13.31
2022-11-13T14:12:52.284Z,13.77
2022-11-13T14:15:37.677Z,13.69
2022-11-13T14:18:23.079Z,13.96
2022-11-13T14:21:17.262Z,13.50
2022-11-13T14:24:03.584Z,13.50
2022-11-13T14:26:49.847Z,13.48
2022-11-13T14:29:40.415Z,13.37
2022-11-13T14:32:28.460Z,12.87
2022-11-13T14:35:21.296Z,12.79
2022-11-13T14:38:11.113Z,12.44
2022-11-13T14:40:56.372Z,12.03
2022-11-13T14:43:48.542Z,11.82
2022-11-13T14:46:35.154Z,11.23
2022-11-13T14:49:27.728Z,11.13
2022-11-13T14:52:23.627Z,11.15
2022-11-13T14:55:20.446Z,11.16
2022-11-13T14:58:05.842Z,10.76
2022-11-13T15:00:51.025Z,10.70
2022-11-13T15:03:35.885Z,10.79
2022-11-13T15:06:25.264Z,10.80
2022-11-13T15:09:15.342Z,10.52
2022-11-13T15:12:00.478Z,10.44
2022-11-13T15:14:45.367Z,10.38
2022-11-13T15:17:30.600Z,10.31
2022-11-13T15:20:17.220Z,10.32
2022-11-13T15:23:02.067Z,10.09
2022-11-13T15:25:47.019Z,9.92
2022-11-13T15:28:31.794Z,9.59
2022-11-13T15:31:22.187Z,9.76
2022-11-13T15:34:09.185Z,9.86
2022-11-13T15:36:54.144Z,9.54
2022-11-13T15:39:39.504Z,9.46
2022-11-13T15:42:28.277Z,9.37
2022-11-13T15:45:14.617Z,9.14
2022-11-13T15:47:59.864Z,8.92
2022-11-13T15:50:46.667Z,8.95
2022-11-13T15:53:31.864Z,9.09
2022-11-13T15:56:17.956Z,9.16
2022-11-13T15:59:03.110Z,8.99
2022-11-13T16:01:50.858Z,8.93
2022-11-13T16:04:55.481Z,8.88
2022-11-13T16:07:42.528Z,8.71
2022-11-13T16:10:27.651Z,8.68
2022-11-13T16:13:13.605Z,8.65
2022-11-13T16:15:59.239Z,8.54
2022-11-13T16:18:44.235Z,8.41
2022-11-13T16:21:29.150Z,8.35
2022-11-13T16:24:14.048Z,8.46
2022-11-13T16:26:59.722Z,8.44
2022-11-13T16:29:44.900Z,8.34
2022-11-13T16:32:29.907Z,7.98
2022-11-13T16:35:15.625Z,8.03
2022-11-13T16:38:00.737Z,7.92
2022-11-13T16:40:45.857Z,7.69
2022-11-13T16:43:31.225Z,7.65
2022-11-13T16:46:21.315Z,7.71
2022-11-13T16:49:11.531Z,7.63
2022-11-13T16:51:56.435Z,7.53
2022-11-13T16:54:41.242Z,7.62
2022-11-13T16:57:27.567Z,7.47
2022-11-13T17:00:14.121Z,7.34
2022-11-13T17:02:59.404Z,7.18
2022-11-13T17:05:44.782Z,7.12
2022-11-13T17:08:29.626Z,7.26
2022-11-13T17:11:15.003Z,7.03
2022-11-13T17:14:00.571Z,7.12
2022-11-13T17:16:45.753Z,7.28
2022-11-13T17:19:30.693Z,7.06
2022-11-13T17:22:16.980Z,6.98
2022-11-13T17:25:01.982Z,6.98
2022-11-13T17:27:46.797Z,6.84
2022-11-13T17:30:31.583Z,6.76
2022-11-13T17:33:17.064Z,6.72
2022-11-13T17:36:03.612Z,6.93
2022-11-13T17:38:48.573Z,6.97
2022-11-13T17:41:34.134Z,6.80
2022-11-13T17:44:18.956Z,6.67
2022-11-13T17:47:03.916Z,6.74
2022-11-13T17:49:49.151Z,6.95
2022-11-13T17:52:34.024Z,6.84
2022-11-13T17:55:19.407Z,6.91
2022-11-13T17:58:04.817Z,7.14
2022-11-13T18:00:50.426Z,7.22
2022-11-13T18:03:35.953Z,7.35
2022-11-13T18:06:21.250Z,7.45
2022-11-13T18:09:06.463Z,7.50
2022-11-13T18:11:51.465Z,7.48
2022-11-13T18:14:36.398Z,7.46
2022-11-13T18:17:22.219Z,7.66
2022-11-13T18:20:07.314Z,7.80
2022-11-13T18:22:52.595Z,7.94
2022-11-13T18:25:39.647Z,7.96
2022-11-13T18:28:25.113Z,8.14
2022-11-13T18:31:11.966Z,8.14
2022-11-13T18:34:01.842Z,8.56
2022-11-13T18:36:46.982Z,8.60
2022-11-13T18:39:32.034Z,8.61
2022-11-13T18:42:16.922Z,8.65
2022-11-13T18:45:06.019Z,8.40
2022-11-13T18:47:51.453Z,8.28
2022-11-13T18:50:36.299Z,8.30
2022-11-13T18:53:21.201Z,8.28
2022-11-13T18:56:07.830Z,8.41
2022-11-13T18:58:53.888Z,8.35
2022-11-13T19:01:40.132Z,8.54
2022-11-13T19:04:25.341Z,8.52
2022-11-13T19:07:12.119Z,8.54
2022-11-13T19:09:57.553Z,8.61
2022-11-13T19:12:42.556Z,8.49
2022-11-13T19:15:28.234Z,8.63
2022-11-13T19:18:13.156Z,8.69
2022-11-13T19:20:58.256Z,8.69
2022-11-13T19:23:43.581Z,8.77
2022-11-13T19:26:29.067Z,8.90
2022-11-13T19:29:14.471Z,8.89
2022-11-13T19:31:59.671Z,8.80
2022-11-13T19:34:46.573Z,8.93
2022-11-13T19:37:31.879Z,8.93
2022-11-13T19:40:17.275Z,8.87
2022-11-13T19:43:02.240Z,8.94
2022-11-13T19:45:46.972Z,8.96
2022-11-13T19:48:32.221Z,9.01
2022-11-13T19:51:19.045Z,8.93
2022-11-13T19:54:04.098Z,8.90
2022-11-13T19:56:49.061Z,8.95
2022-11-13T19:59:35.271Z,8.90
2022-11-13T20:02:20.537Z,8.94
2022-11-13T20:05:05.761Z,8.95
2022-11-13T20:07:50.862Z,8.74
2022-11-13T20:10:35.506Z,8.81
2022-11-13T20:13:20.656Z,8.85
2022-11-13T20:16:06.664Z,8.90
2022-11-13T20:18:52.275Z,8.89
2022-11-13T20:21:37.563Z,9.03
2022-11-13T20:24:22.560Z,9.15
2022-11-13T20:27:07.705Z,9.27
2022-11-13T20:29:52.785Z,9.33
2022-11-13T20:32:38.432Z,9.18
2022-11-13T20:35:23.616Z,9.35
2022-11-13T20:38:08.576Z,9.27
2022-11-13T20:40:54.040Z,9.16
2022-11-13T20:43:38.991Z,9.17
2022-11-13T20:46:24.178Z,9.19
2022-11-13T20:49:09.012Z,9.01
2022-11-13T20:51:57.180Z,8.96
2022-11-13T20:54:42.362Z,8.91
2022-11-13T20:57:27.224Z,8.72
2022-11-13T21:00:12.472Z,8.73
2022-11-13T21:02:57.664Z,8.90
2022-11-13T21:05:45.105Z,8.94
2022-11-13T21:08:30.977Z,8.98
2022-11-13T21:11:19.144Z,9.00
2022-11-13T21:14:04.089Z,9.09
2022-11-13T21:16:49.491Z,9.11
2022-11-13T21:19:34.280Z,9.09
2022-11-13T21:22:19.246Z,8.96
2022-11-13T21:25:04.286Z,9.16
2022-11-13T21:27:49.316Z,9.04
2022-11-13T21:30:34.559Z,9.11
2022-11-13T21:33:19.631Z,9.21
2022-11-13T21:36:05.613Z,9.09
2022-11-13T21:38:52.549Z,9.06
2022-11-13T21:41:37.956Z,9.11
2022-11-13T21:44:23.191Z,9.07
2022-11-13T21:47:10.762Z,9.16
2022-11-13T21:49:55.950Z,9.02
2022-11-13T21:52:40.805Z,9.15
2022-11-13T21:55:25.601Z,9.16
2022-11-13T21:58:10.392Z,9.30
2022-11-13T22:00:55.281Z,9.29
2022-11-13T22:03:40.234Z,9.29
2022-11-13T22:06:26.356Z,9.12
2022-11-13T22:09:38.223Z,9.11
2022-11-13T22:12:23.074Z,9.19
2022-11-13T22:15:09.662Z,9.09
2022-11-13T22:17:54.685Z,9.09
2022-11-13T22:20:39.522Z,8.95
2022-11-13T22:23:24.584Z,9.07
2022-11-13T22:26:10.979Z,9.25
2022-11-13T22:28:56.416Z,9.27
2022-11-13T22:31:41.754Z,9.35
2022-11-13T22:34:27.002Z,9.40
2022-11-13T22:37:11.788Z,9.33
2022-11-13T22:39:56.760Z,9.28
2022-11-13T22:42:41.482Z,9.18
2022-11-13T22:45:26.436Z,9.34
2022-11-13T22:48:11.627Z,9.31
2022-11-13T22:51:01.555Z,9.28
2022-11-13T22:53:51.309Z,9.37
2022-11-13T22:56:36.849Z,9.17
2022-11-13T22:59:22.113Z,9.16
2022-11-13T23:02:06.957Z,9.13
2022-11-13T23:04:52.214Z,8.90
2022-11-13T23:07:36.979Z,9.01
2022-11-13T23:10:25.360Z,9.09
2022-11-13T23:13:10.147Z,9.13
2022-11-13T23:15:55.003Z,9.18
2022-11-13T23:18:40.423Z,9.10
2022-11-13T23:21:25.713Z,9.16
2022-11-13T23:24:11.373Z,9.23
2022-11-13T23:26:57.193Z,9.39
2022-11-13T23:29:47.263Z,9.60
2022-11-13T23:32:34.668Z,9.59
2022-11-13T23:35:19.613Z,9.43
2022-11-13T23:38:04.480Z,9.41
2022-11-13T23:40:54.205Z,9.16
2022-11-13T23:44:08.137Z,9.22
2022-11-13T23:46:44.654Z,9.25
2022-11-13T23:49:29.657Z,9.24
2022-11-13T23:52:14.556Z,9.22
2022-11-13T23:54:59.592Z,9.17
2022-11-13T23:57:44.836Z,9.35
